sensor_id;sensor_type;location;lat;lon;timestamp;temperature;humidity
51853;DHT22;37894;53.172;6.598;2024-01-30T00:09:30;5.80;99.90
51853;DHT22;37894;53.172;6.598;2024-01-30T00:28:59;5.60;99.90
51853;DHT22;37894;53.172;6.598;2024-01-30T00:46:02;5.60;99.90
51853;DHT22;37894;53.172;6.598;2024-01-30T00:58:13;5.60;99.90
51853;DHT22;37894;53.172;6.598;2024-01-30T01:03:05;6.30;99.90
51853;DHT22;37894;53.172;6.598;2024-01-30T01:20:08;5.30;99.90
51853;DHT22;37894;53.172;6.598;2024-01-30T01:22:34;5.70;99.90
51853;DHT22;37894;53.172;6.598;2024-01-30T01:25:01;5.60;99.90
51853;DHT22;37894;53.172;6.598;2024-01-30T01:29:53;5.70;99.90
51853;DHT22;37894;53.172;6.598;2024-01-30T01:32:19;5.00;99.90
51853;DHT22;37894;53.172;6.598;2024-01-30T01:34:45;5.80;99.90
51853;DHT22;37894;53.172;6.598;2024-01-30T01:46:55;5.90;99.90
51853;DHT22;37894;53.172;6.598;2024-01-30T01:49:24;5.80;99.90
51853;DHT22;37894;53.172;6.598;2024-01-30T01:51:52;5.90;99.90
51853;DHT22;37894;53.172;6.598;2024-01-30T01:54:19;6.40;99.90
51853;DHT22;37894;53.172;6.598;2024-01-30T01:56:45;4.90;99.90
51853;DHT22;37894;53.172;6.598;2024-01-30T02:01:38;5.10;99.90
51853;DHT22;37894;53.172;6.598;2024-01-30T02:04:07;5.70;99.90
51853;DHT22;37894;53.172;6.598;2024-01-30T02:06:35;5.70;99.90
51853;DHT22;37894;53.172;6.598;2024-01-30T02:11:27;5.70;99.90
51853;DHT22;37894;53.172;6.598;2024-01-30T02:13:53;5.80;99.90
51853;DHT22;37894;53.172;6.598;2024-01-30T02:21:18;5.60;99.90
51853;DHT22;37894;53.172;6.598;2024-01-30T02:23:46;5.80;99.90
51853;DHT22;37894;53.172;6.598;2024-01-30T02:26:12;5.60;99.90
51853;DHT22;37894;53.172;6.598;2024-01-30T02:31:05;5.10;99.90
51853;DHT22;37894;53.172;6.598;2024-01-30T02:33:31;5.30;99.90
51853;DHT22;37894;53.172;6.598;2024-01-30T02:35:57;6.90;99.90
51853;DHT22;37894;53.172;6.598;2024-01-30T02:43:16;5.80;99.90
51853;DHT22;37894;53.172;6.598;2024-01-30T02:45:41;6.60;99.90
51853;DHT22;37894;53.172;6.598;2024-01-30T02:48:10;5.50;99.90
51853;DHT22;37894;53.172;6.598;2024-01-30T02:50:36;6.20;99.90
51853;DHT22;37894;53.172;6.598;2024-01-30T03:10:05;6.10;99.90
51853;DHT22;37894;53.172;6.598;2024-01-30T03:12:31;6.10;99.90
51853;DHT22;37894;53.172;6.598;2024-01-30T03:19:50;5.90;99.90
51853;DHT22;37894;53.172;6.598;2024-01-30T03:29:34;5.40;99.90
51853;DHT22;37894;53.172;6.598;2024-01-30T03:46:37;5.30;99.90
51853;DHT22;37894;53.172;6.598;2024-01-30T03:53:55;6.00;99.90
51853;DHT22;37894;53.172;6.598;2024-01-30T03:58:47;5.90;99.90
51853;DHT22;37894;53.172;6.598;2024-01-30T04:01:16;5.80;99.90
51853;DHT22;37894;53.172;6.598;2024-01-30T04:03:42;6.50;99.90
51853;DHT22;37894;53.172;6.598;2024-01-30T04:06:09;5.00;99.90
51853;DHT22;37894;53.172;6.598;2024-01-30T04:11:04;5.90;99.90
51853;DHT22;37894;53.172;6.598;2024-01-30T04:16:01;5.60;99.90
51853;DHT22;37894;53.172;6.598;2024-01-30T04:18:28;7.20;99.90
51853;DHT22;37894;53.172;6.598;2024-01-30T04:20:54;7.20;99.90
51853;DHT22;37894;53.172;6.598;2024-01-30T04:30:38;6.10;99.90
51853;DHT22;37894;53.172;6.598;2024-01-30T04:37:56;6.50;99.90
51853;DHT22;37894;53.172;6.598;2024-01-30T04:52:34;6.30;99.90
51853;DHT22;37894;53.172;6.598;2024-01-30T04:55:00;6.80;99.90
51853;DHT22;37894;53.172;6.598;2024-01-30T05:29:07;7.30;99.90
51853;DHT22;37894;53.172;6.598;2024-01-30T05:31:33;7.10;99.90
51853;DHT22;37894;53.172;6.598;2024-01-30T05:41:18;6.80;99.90
51853;DHT22;37894;53.172;6.598;2024-01-30T06:00:49;6.70;99.90
51853;DHT22;37894;53.172;6.598;2024-01-30T06:05:40;7.00;99.90
51853;DHT22;37894;53.172;6.598;2024-01-30T06:08:07;7.20;99.90
51853;DHT22;37894;53.172;6.598;2024-01-30T06:10:32;7.50;99.90
51853;DHT22;37894;53.172;6.598;2024-01-30T06:15:24;7.00;99.90
51853;DHT22;37894;53.172;6.598;2024-01-30T06:30:01;7.30;99.90
51853;DHT22;37894;53.172;6.598;2024-01-30T06:32:26;7.10;99.90
51853;DHT22;37894;53.172;6.598;2024-01-30T06:37:20;8.50;99.90
51853;DHT22;37894;53.172;6.598;2024-01-30T06:49:30;8.40;99.90
51853;DHT22;37894;53.172;6.598;2024-01-30T07:04:06;7.40;99.90
51853;DHT22;37894;53.172;6.598;2024-01-30T07:11:24;7.80;99.90
51853;DHT22;37894;53.172;6.598;2024-01-30T07:13:53;7.20;99.90
51853;DHT22;37894;53.172;6.598;2024-01-30T07:16:19;8.10;99.90
51853;DHT22;37894;53.172;6.598;2024-01-30T07:28:34;7.70;99.90
51853;DHT22;37894;53.172;6.598;2024-01-30T07:31:03;7.70;99.90
51853;DHT22;37894;53.172;6.598;2024-01-30T07:40:47;7.80;99.90
51853;DHT22;37894;53.172;6.598;2024-01-30T07:48:06;7.50;99.90
51853;DHT22;37894;53.172;6.598;2024-01-30T07:52:59;7.80;99.90
51853;DHT22;37894;53.172;6.598;2024-01-30T07:55:25;7.80;99.90
51853;DHT22;37894;53.172;6.598;2024-01-30T08:00:23;7.80;99.90
51853;DHT22;37894;53.172;6.598;2024-01-30T08:07:41;7.90;99.90
51853;DHT22;37894;53.172;6.598;2024-01-30T08:10:08;8.10;99.90
51853;DHT22;37894;53.172;6.598;2024-01-30T08:15:00;7.70;99.90
51853;DHT22;37894;53.172;6.598;2024-01-30T08:19:52;8.30;99.90
51853;DHT22;37894;53.172;6.598;2024-01-30T08:49:05;8.70;99.90
51853;DHT22;37894;53.172;6.598;2024-01-30T09:01:15;8.60;99.90
51853;DHT22;37894;53.172;6.598;2024-01-30T09:06:10;8.60;99.90
51853;DHT22;37894;53.172;6.598;2024-01-30T09:08:36;8.40;99.90
51853;DHT22;37894;53.172;6.598;2024-01-30T09:11:12;8.30;99.90
51853;DHT22;37894;53.172;6.598;2024-01-30T09:16:04;8.60;99.90
51853;DHT22;37894;53.172;6.598;2024-01-30T09:20:57;9.60;99.90
51853;DHT22;37894;53.172;6.598;2024-01-30T09:30:41;8.90;99.90
51853;DHT22;37894;53.172;6.598;2024-01-30T09:40:25;8.40;99.90
51853;DHT22;37894;53.172;6.598;2024-01-30T09:42:51;11.30;99.90
51853;DHT22;37894;53.172;6.598;2024-01-30T09:45:24;9.10;99.90
51853;DHT22;37894;53.172;6.598;2024-01-30T09:50:17;8.50;99.90
51853;DHT22;37894;53.172;6.598;2024-01-30T09:52:46;9.30;99.90
51853;DHT22;37894;53.172;6.598;2024-01-30T09:55:13;10.10;99.90
51853;DHT22;37894;53.172;6.598;2024-01-30T10:00:06;9.30;99.90
51853;DHT22;37894;53.172;6.598;2024-01-30T10:02:38;8.80;99.90
51853;DHT22;37894;53.172;6.598;2024-01-30T10:05:04;9.60;99.90
51853;DHT22;37894;53.172;6.598;2024-01-30T10:07:31;8.50;99.90
51853;DHT22;37894;53.172;6.598;2024-01-30T10:09:57;9.50;99.90
51853;DHT22;37894;53.172;6.598;2024-01-30T10:14:49;9.40;99.90
51853;DHT22;37894;53.172;6.598;2024-01-30T10:17:14;9.60;99.90
51853;DHT22;37894;53.172;6.598;2024-01-30T10:19:41;9.10;99.90
51853;DHT22;37894;53.172;6.598;2024-01-30T10:22:07;9.70;99.90
51853;DHT22;37894;53.172;6.598;2024-01-30T10:29:27;10.10;99.90
51853;DHT22;37894;53.172;6.598;2024-01-30T10:32:04;9.90;99.90
51853;DHT22;37894;53.172;6.598;2024-01-30T10:37:10;10.00;99.90
51853;DHT22;37894;53.172;6.598;2024-01-30T10:39:42;10.10;99.90
51853;DHT22;37894;53.172;6.598;2024-01-30T10:42:13;10.10;99.90
51853;DHT22;37894;53.172;6.598;2024-01-30T10:47:28;10.30;99.90
51853;DHT22;37894;53.172;6.598;2024-01-30T10:49:55;10.20;99.90
51853;DHT22;37894;53.172;6.598;2024-01-30T10:52:23;10.20;99.90
51853;DHT22;37894;53.172;6.598;2024-01-30T10:54:54;10.20;99.90
51853;DHT22;37894;53.172;6.598;2024-01-30T11:02:13;10.20;99.90
51853;DHT22;37894;53.172;6.598;2024-01-30T11:04:43;10.00;99.90
51853;DHT22;37894;53.172;6.598;2024-01-30T11:07:24;9.90;99.90
51853;DHT22;37894;53.172;6.598;2024-01-30T11:09:51;13.60;99.90
51853;DHT22;37894;53.172;6.598;2024-01-30T11:12:22;10.20;99.90
51853;DHT22;37894;53.172;6.598;2024-01-30T11:14:48;9.60;99.90
51853;DHT22;37894;53.172;6.598;2024-01-30T11:19:41;10.20;99.90
51853;DHT22;37894;53.172;6.598;2024-01-30T11:24:39;10.20;99.90
51853;DHT22;37894;53.172;6.598;2024-01-30T11:27:09;10.20;99.90
51853;DHT22;37894;53.172;6.598;2024-01-30T11:32:02;10.20;99.90
51853;DHT22;37894;53.172;6.598;2024-01-30T11:37:04;10.40;99.90
51853;DHT22;37894;53.172;6.598;2024-01-30T11:41:59;10.20;99.90
51853;DHT22;37894;53.172;6.598;2024-01-30T11:46:52;9.20;99.90
51853;DHT22;37894;53.172;6.598;2024-01-30T11:49:18;10.00;99.90
51853;DHT22;37894;53.172;6.598;2024-01-30T11:51:47;10.10;99.90
51853;DHT22;37894;53.172;6.598;2024-01-30T11:54:16;10.10;99.90
51853;DHT22;37894;53.172;6.598;2024-01-30T11:56:42;10.00;99.90
51853;DHT22;37894;53.172;6.598;2024-01-30T12:09:00;9.70;99.90
51853;DHT22;37894;53.172;6.598;2024-01-30T12:13:53;9.80;99.90
51853;DHT22;37894;53.172;6.598;2024-01-30T12:26:04;9.70;99.90
51853;DHT22;37894;53.172;6.598;2024-01-30T12:31:05;9.70;99.90
51853;DHT22;37894;53.172;6.598;2024-01-30T12:36:00;9.90;99.90
51853;DHT22;37894;53.172;6.598;2024-01-30T12:40:56;9.80;99.90
51853;DHT22;37894;53.172;6.598;2024-01-30T12:43:23;9.80;99.90
51853;DHT22;37894;53.172;6.598;2024-01-30T12:45:50;9.80;99.90
51853;DHT22;37894;53.172;6.598;2024-01-30T12:48:15;9.70;99.90
51853;DHT22;37894;53.172;6.598;2024-01-30T12:55:35;9.70;99.90
51853;DHT22;37894;53.172;6.598;2024-01-30T13:05:19;10.30;99.90
51853;DHT22;37894;53.172;6.598;2024-01-30T13:15:04;9.80;99.90
51853;DHT22;37894;53.172;6.598;2024-01-30T13:22:24;9.40;99.90
51853;DHT22;37894;53.172;6.598;2024-01-30T13:24:50;9.40;99.90
51853;DHT22;37894;53.172;6.598;2024-01-30T13:32:08;9.60;99.90
51853;DHT22;37894;53.172;6.598;2024-01-30T14:11:07;9.50;99.90
51853;DHT22;37894;53.172;6.598;2024-01-30T14:28:11;9.20;99.90
51853;DHT22;37894;53.172;6.598;2024-01-30T14:30:37;9.10;99.90
51853;DHT22;37894;53.172;6.598;2024-01-30T14:35:29;9.20;99.90
51853;DHT22;37894;53.172;6.598;2024-01-30T14:37:55;8.90;99.90
51853;DHT22;37894;53.172;6.598;2024-01-30T14:45:13;8.80;99.90
51853;DHT22;37894;53.172;6.598;2024-01-30T14:47:39;8.70;99.90
51853;DHT22;37894;53.172;6.598;2024-01-30T14:52:33;8.60;99.90
51853;DHT22;37894;53.172;6.598;2024-01-30T14:54:59;7.80;99.90
51853;DHT22;37894;53.172;6.598;2024-01-30T15:04:43;8.00;99.90
51853;DHT22;37894;53.172;6.598;2024-01-30T15:09:35;8.20;99.90
51853;DHT22;37894;53.172;6.598;2024-01-30T15:14:27;8.30;99.90
51853;DHT22;37894;53.172;6.598;2024-01-30T15:24:10;8.80;99.90
51853;DHT22;37894;53.172;6.598;2024-01-30T15:26:40;8.20;99.90
51853;DHT22;37894;53.172;6.598;2024-01-30T15:29:06;8.30;99.90
51853;DHT22;37894;53.172;6.598;2024-01-30T15:33:58;8.30;99.90
51853;DHT22;37894;53.172;6.598;2024-01-30T15:36:24;9.20;99.90
51853;DHT22;37894;53.172;6.598;2024-01-30T15:41:15;8.30;99.90
51853;DHT22;37894;53.172;6.598;2024-01-30T15:46:07;8.40;99.90
51853;DHT22;37894;53.172;6.598;2024-01-30T15:50:59;8.40;99.90
51853;DHT22;37894;53.172;6.598;2024-01-30T15:53:26;8.20;99.90
51853;DHT22;37894;53.172;6.598;2024-01-30T15:58:18;7.30;99.90
51853;DHT22;37894;53.172;6.598;2024-01-30T16:03:10;8.30;99.90
51853;DHT22;37894;53.172;6.598;2024-01-30T16:08:02;8.50;99.90
51853;DHT22;37894;53.172;6.598;2024-01-30T16:17:46;7.20;99.90
51853;DHT22;37894;53.172;6.598;2024-01-30T16:22:41;8.80;99.90
51853;DHT22;37894;53.172;6.598;2024-01-30T16:39:43;8.60;99.90
51853;DHT22;37894;53.172;6.598;2024-01-30T16:44:36;8.10;99.90
51853;DHT22;37894;53.172;6.598;2024-01-30T16:49:28;8.00;99.90
51853;DHT22;37894;53.172;6.598;2024-01-30T16:54:20;8.50;99.90
51853;DHT22;37894;53.172;6.598;2024-01-30T16:56:45;7.60;99.90
51853;DHT22;37894;53.172;6.598;2024-01-30T16:59:17;7.70;99.90
51853;DHT22;37894;53.172;6.598;2024-01-30T17:01:44;7.70;99.90
51853;DHT22;37894;53.172;6.598;2024-01-30T17:04:15;7.60;99.90
51853;DHT22;37894;53.172;6.598;2024-01-30T17:45:44;7.60;99.90
51853;DHT22;37894;53.172;6.598;2024-01-30T17:50:36;7.40;99.90
51853;DHT22;37894;53.172;6.598;2024-01-30T17:53:02;7.30;99.90
51853;DHT22;37894;53.172;6.598;2024-01-30T18:02:47;7.00;99.90
51853;DHT22;37894;53.172;6.598;2024-01-30T18:10:06;7.30;99.90
51853;DHT22;37894;53.172;6.598;2024-01-30T18:12:33;6.90;99.90
51853;DHT22;37894;53.172;6.598;2024-01-30T18:14:59;7.10;99.90
51853;DHT22;37894;53.172;6.598;2024-01-30T18:19:51;7.20;99.90
51853;DHT22;37894;53.172;6.598;2024-01-30T18:24:43;7.40;99.90
51853;DHT22;37894;53.172;6.598;2024-01-30T18:32:02;7.30;99.90
51853;DHT22;37894;53.172;6.598;2024-01-30T18:36:53;7.20;99.90
51853;DHT22;37894;53.172;6.598;2024-01-30T18:39:23;7.20;99.90
51853;DHT22;37894;53.172;6.598;2024-01-30T18:46:41;7.00;99.90
51853;DHT22;37894;53.172;6.598;2024-01-30T18:53:58;7.00;99.90
51853;DHT22;37894;53.172;6.598;2024-01-30T19:03:45;7.00;99.90
51853;DHT22;37894;53.172;6.598;2024-01-30T19:06:11;6.80;99.90
51853;DHT22;37894;53.172;6.598;2024-01-30T19:08:38;6.90;99.90
51853;DHT22;37894;53.172;6.598;2024-01-30T19:13:30;7.90;99.90
51853;DHT22;37894;53.172;6.598;2024-01-30T19:23:15;6.90;99.90
51853;DHT22;37894;53.172;6.598;2024-01-30T19:28:09;7.80;99.90
51853;DHT22;37894;53.172;6.598;2024-01-30T19:30:36;7.00;99.90
51853;DHT22;37894;53.172;6.598;2024-01-30T19:40:20;7.00;99.90
51853;DHT22;37894;53.172;6.598;2024-01-30T19:47:40;6.50;99.90
51853;DHT22;37894;53.172;6.598;2024-01-30T19:54:59;6.70;99.90
51853;DHT22;37894;53.172;6.598;2024-01-30T19:59:51;6.70;99.90
51853;DHT22;37894;53.172;6.598;2024-01-30T20:09:41;6.80;99.90
51853;DHT22;37894;53.172;6.598;2024-01-30T20:21:55;6.60;99.90
51853;DHT22;37894;53.172;6.598;2024-01-30T20:29:13;6.70;99.90
51853;DHT22;37894;53.172;6.598;2024-01-30T20:34:04;6.70;99.90
51853;DHT22;37894;53.172;6.598;2024-01-30T20:51:13;6.90;99.90
51853;DHT22;37894;53.172;6.598;2024-01-30T20:56:09;6.50;99.90
51853;DHT22;37894;53.172;6.598;2024-01-30T21:01:01;5.90;99.90
51853;DHT22;37894;53.172;6.598;2024-01-30T21:05:55;6.30;99.90
51853;DHT22;37894;53.172;6.598;2024-01-30T21:08:20;6.90;99.90
51853;DHT22;37894;53.172;6.598;2024-01-30T21:10:46;6.40;99.90
51853;DHT22;37894;53.172;6.598;2024-01-30T21:18:04;5.10;99.90
51853;DHT22;37894;53.172;6.598;2024-01-30T21:25:23;5.80;99.90
51853;DHT22;37894;53.172;6.598;2024-01-30T21:32:41;6.10;99.90
51853;DHT22;37894;53.172;6.598;2024-01-30T21:40:00;6.00;99.90
51853;DHT22;37894;53.172;6.598;2024-01-30T21:42:26;6.10;99.90
51853;DHT22;37894;53.172;6.598;2024-01-30T21:44:52;6.10;99.90
51853;DHT22;37894;53.172;6.598;2024-01-30T21:47:24;5.90;99.90
51853;DHT22;37894;53.172;6.598;2024-01-30T21:49:50;5.90;99.90
51853;DHT22;37894;53.172;6.598;2024-01-30T21:52:17;6.20;99.90
51853;DHT22;37894;53.172;6.598;2024-01-30T21:54:42;6.00;99.90
51853;DHT22;37894;53.172;6.598;2024-01-30T21:59:35;6.10;99.90
51853;DHT22;37894;53.172;6.598;2024-01-30T22:02:01;6.70;99.90
51853;DHT22;37894;53.172;6.598;2024-01-30T22:06:53;6.10;99.90
51853;DHT22;37894;53.172;6.598;2024-01-30T22:16:40;5.70;99.90
51853;DHT22;37894;53.172;6.598;2024-01-30T22:26:27;6.80;99.90
51853;DHT22;37894;53.172;6.598;2024-01-30T22:31:21;6.00;99.90
51853;DHT22;37894;53.172;6.598;2024-01-30T22:33:47;6.00;99.90
51853;DHT22;37894;53.172;6.598;2024-01-30T22:38:42;5.80;99.90
51853;DHT22;37894;53.172;6.598;2024-01-30T22:46:00;5.10;99.90
51853;DHT22;37894;53.172;6.598;2024-01-30T22:53:18;5.70;99.90
51853;DHT22;37894;53.172;6.598;2024-01-30T23:10:22;5.60;99.90
51853;DHT22;37894;53.172;6.598;2024-01-30T23:22:35;5.20;99.90
51853;DHT22;37894;53.172;6.598;2024-01-30T23:25:05;5.50;99.90
51853;DHT22;37894;53.172;6.598;2024-01-30T23:27:31;5.40;99.90
51853;DHT22;37894;53.172;6.598;2024-01-30T23:37:15;5.60;99.90
51853;DHT22;37894;53.172;6.598;2024-01-30T23:44:33;6.30;99.90
51853;DHT22;37894;53.172;6.598;2024-01-30T23:51:51;5.90;99.90
51853;DHT22;37894;53.172;6.598;2024-01-30T23:56:43;6.20;99.90
51853;DHT22;37894;53.172;6.598;2024-01-30T23:59:10;5.60;99.90
